Aviation Digital Data Service (ADDS)

Output produced by METARs form (1455 UTC 19 January 2019)
found at http://www.aviationweather.gov/metar/data/
 
METAR text: UKBB 191430Z 25003MPS CAVOK M02/M06 Q1021 R18L/811045 R18R/811095 NOSIG
Conditions at: UKBB (BORISPOL'/KIEV , UA) observed 1430 UTC 19 January 2019
Temperature: -2.0°C (28°F)
Dewpoint: -6.0°C (21°F) [RH = 74%]
Pressure (altimeter): 30.15 inches Hg (1021.0 mb)
Winds: from the WSW (250 degrees) at 7 MPH (6 knots; 3.1 m/s)
Visibility: 6 or more miles (10+ km)
Ceiling: ceiling and visibility are OK
Clouds: unknown
Weather: no significant weather observed at this time

METAR text: UKBB 191400Z 26003MPS CAVOK M01/M06 Q1020 R18L/811045 R18R/811095 NOSIG
Conditions at: UKBB (BORISPOL'/KIEV , UA) observed 1400 UTC 19 January 2019
Temperature: -1.0°C (30°F)
Dewpoint: -6.0°C (21°F) [RH = 69%]
Pressure (altimeter): 30.12 inches Hg (1020.0 mb)
Winds: from the W (260 degrees) at 7 MPH (6 knots; 3.1 m/s)
Visibility: 6 or more miles (10+ km)
Ceiling: ceiling and visibility are OK
Clouds: unknown
Weather: no significant weather observed at this time

METAR text: UKBB 191330Z 29002MPS CAVOK M01/M06 Q1020 R18L/811045 R18R/811095 NOSIG
Conditions at: UKBB (BORISPOL'/KIEV , UA) observed 1330 UTC 19 January 2019
Temperature: -1.0°C (30°F)
Dewpoint: -6.0°C (21°F) [RH = 69%]
Pressure (altimeter): 30.12 inches Hg (1020.0 mb)
Winds: from the WNW (290 degrees) at 5 MPH (4 knots; 2.1 m/s)
Visibility: 6 or more miles (10+ km)
Ceiling: ceiling and visibility are OK
Clouds: unknown
Weather: no significant weather observed at this time

METAR text: UKBB 191300Z 31004MPS CAVOK M02/M06 Q1020 R18L/811045 R18R/811095 NOSIG
Conditions at: UKBB (BORISPOL'/KIEV , UA) observed 1300 UTC 19 January 2019
Temperature: -2.0°C (28°F)
Dewpoint: -6.0°C (21°F) [RH = 74%]
Pressure (altimeter): 30.12 inches Hg (1020.0 mb)
Winds: from the NW (310 degrees) at 9 MPH (8 knots; 4.1 m/s)
Visibility: 6 or more miles (10+ km)
Ceiling: ceiling and visibility are OK
Clouds: unknown
Weather: no significant weather observed at this time

METAR text: UKBB 191230Z 31004MPS 270V330 CAVOK M00/M05 Q1020 R18L/811045 R18R/811095 NOSIG
Conditions at: UKBB (BORISPOL'/KIEV , UA) observed 1230 UTC 19 January 2019
Temperature: 0.0°C (32°F)
Dewpoint: -5.0°C (23°F) [RH = 69%]
Pressure (altimeter): 30.12 inches Hg (1020.0 mb)
Winds: from the NW (310 degrees) at 9 MPH (8 knots; 4.1 m/s)
Visibility: 6 or more miles (10+ km)
Ceiling: ceiling and visibility are OK
Clouds: unknown
Weather: no significant weather observed at this time

METAR text: UKBB 191200Z 32004MPS 290V360 CAVOK M00/M05 Q1020 R18L/811045 R18R/811095 NOSIG
Conditions at: UKBB (BORISPOL'/KIEV , UA) observed 1200 UTC 19 January 2019
Temperature: 0.0°C (32°F)
Dewpoint: -5.0°C (23°F) [RH = 69%]
Pressure (altimeter): 30.12 inches Hg (1020.0 mb)
Winds: from the NW (320 degrees) at 9 MPH (8 knots; 4.1 m/s)
Visibility: 6 or more miles (10+ km)
Ceiling: ceiling and visibility are OK
Clouds: unknown
Weather: no significant weather observed at this time

METAR text: UKBB 191130Z 28004MPS 250V310 CAVOK M00/M05 Q1020 R18L/811045 R18R/811095 NOSIG
Conditions at: UKBB (BORISPOL'/KIEV , UA) observed 1130 UTC 19 January 2019
Temperature: 0.0°C (32°F)
Dewpoint: -5.0°C (23°F) [RH = 69%]
Pressure (altimeter): 30.12 inches Hg (1020.0 mb)
Winds: from the W (280 degrees) at 9 MPH (8 knots; 4.1 m/s)
Visibility: 6 or more miles (10+ km)
Ceiling: ceiling and visibility are OK
Clouds: unknown
Weather: no significant weather observed at this time

METAR text: UKBB 191100Z 28004MPS CAVOK M01/M05 Q1019 R18L/811045 R18R/811095 NOSIG
Conditions at: UKBB (BORISPOL'/KIEV , UA) observed 1100 UTC 19 January 2019
Temperature: -1.0°C (30°F)
Dewpoint: -5.0°C (23°F) [RH = 74%]
Pressure (altimeter): 30.09 inches Hg (1019.0 mb)
Winds: from the W (280 degrees) at 9 MPH (8 knots; 4.1 m/s)
Visibility: 6 or more miles (10+ km)
Ceiling: ceiling and visibility are OK
Clouds: unknown
Weather: no significant weather observed at this time

METAR text: UKBB 191030Z 28002MPS 250V330 CAVOK M01/M05 Q1019 R18L/811045 R18R/811095 NOSIG
Conditions at: UKBB (BORISPOL'/KIEV , UA) observed 1030 UTC 19 January 2019
Temperature: -1.0°C (30°F)
Dewpoint: -5.0°C (23°F) [RH = 74%]
Pressure (altimeter): 30.09 inches Hg (1019.0 mb)
Winds: from the W (280 degrees) at 5 MPH (4 knots; 2.1 m/s)
Visibility: 6 or more miles (10+ km)
Ceiling: ceiling and visibility are OK
Clouds: unknown
Weather: no significant weather observed at this time

METAR text: UKBB 191000Z 26004MPS 240V310 CAVOK M01/M05 Q1020 R18L/811045 R18R/811095 NOSIG
Conditions at: UKBB (BORISPOL'/KIEV , UA) observed 1000 UTC 19 January 2019
Temperature: -1.0°C (30°F)
Dewpoint: -5.0°C (23°F) [RH = 74%]
Pressure (altimeter): 30.12 inches Hg (1020.0 mb)
Winds: from the W (260 degrees) at 9 MPH (8 knots; 4.1 m/s)
Visibility: 6 or more miles (10+ km)
Ceiling: ceiling and visibility are OK
Clouds: unknown
Weather: no significant weather observed at this time

METAR text: UKBB 190930Z 26003MPS CAVOK M02/M06 Q1020 R18L/811045 R18R/811095 NOSIG
Conditions at: UKBB (BORISPOL'/KIEV , UA) observed 0930 UTC 19 January 2019
Temperature: -2.0°C (28°F)
Dewpoint: -6.0°C (21°F) [RH = 74%]
Pressure (altimeter): 30.12 inches Hg (1020.0 mb)
Winds: from the W (260 degrees) at 7 MPH (6 knots; 3.1 m/s)
Visibility: 6 or more miles (10+ km)
Ceiling: ceiling and visibility are OK
Clouds: unknown
Weather: no significant weather observed at this time

METAR text: UKBB 190900Z 26004MPS CAVOK M02/M06 Q1019 R18L/811045 R18R/811095 NOSIG
Conditions at: UKBB (BORISPOL'/KIEV , UA) observed 0900 UTC 19 January 2019
Temperature: -2.0°C (28°F)
Dewpoint: -6.0°C (21°F) [RH = 74%]
Pressure (altimeter): 30.09 inches Hg (1019.0 mb)
Winds: from the W (260 degrees) at 9 MPH (8 knots; 4.1 m/s)
Visibility: 6 or more miles (10+ km)
Ceiling: ceiling and visibility are OK
Clouds: unknown
Weather: no significant weather observed at this time

METAR text: UKBB 190830Z 26003MPS CAVOK M03/M06 Q1019 R18L/811045 R18R/811095 NOSIG
Conditions at: UKBB (BORISPOL'/KIEV , UA) observed 0830 UTC 19 January 2019
Temperature: -3.0°C (27°F)
Dewpoint: -6.0°C (21°F) [RH = 80%]
Pressure (altimeter): 30.09 inches Hg (1019.0 mb)
Winds: from the W (260 degrees) at 7 MPH (6 knots; 3.1 m/s)
Visibility: 6 or more miles (10+ km)
Ceiling: ceiling and visibility are OK
Clouds: unknown
Weather: no significant weather observed at this time

METAR text: UKBB 190800Z 26004MPS CAVOK M03/M07 Q1019 R18L/811045 R18R/811095 NOSIG
Conditions at: UKBB (BORISPOL'/KIEV , UA) observed 0800 UTC 19 January 2019
Temperature: -3.0°C (27°F)
Dewpoint: -7.0°C (19°F) [RH = 74%]
Pressure (altimeter): 30.09 inches Hg (1019.0 mb)
Winds: from the W (260 degrees) at 9 MPH (8 knots; 4.1 m/s)
Visibility: 6 or more miles (10+ km)
Ceiling: ceiling and visibility are OK
Clouds: unknown
Weather: no significant weather observed at this time

METAR text: UKBB 190730Z 26004MPS CAVOK M04/M07 Q1019 R18L/811045 R18R/811095 NOSIG
Conditions at: UKBB (BORISPOL'/KIEV , UA) observed 0730 UTC 19 January 2019
Temperature: -4.0°C (25°F)
Dewpoint: -7.0°C (19°F) [RH = 80%]
Pressure (altimeter): 30.09 inches Hg (1019.0 mb)
Winds: from the W (260 degrees) at 9 MPH (8 knots; 4.1 m/s)
Visibility: 6 or more miles (10+ km)
Ceiling: ceiling and visibility are OK
Clouds: unknown
Weather: no significant weather observed at this time

METAR text: UKBB 190700Z 25002MPS CAVOK M04/M08 Q1018 R18L/811040 R18R/811095 NOSIG
Conditions at: UKBB (BORISPOL'/KIEV , UA) observed 0700 UTC 19 January 2019
Temperature: -4.0°C (25°F)
Dewpoint: -8.0°C (18°F) [RH = 74%]
Pressure (altimeter): 30.06 inches Hg (1018.0 mb)
Winds: from the WSW (250 degrees) at 5 MPH (4 knots; 2.1 m/s)
Visibility: 6 or more miles (10+ km)
Ceiling: ceiling and visibility are OK
Clouds: unknown
Weather: no significant weather observed at this time

METAR text: UKBB 190630Z 25002MPS CAVOK M04/M08 Q1018 R36R/811040 R36L/821045 NOSIG
Conditions at: UKBB (BORISPOL'/KIEV , UA) observed 0630 UTC 19 January 2019
Temperature: -4.0°C (25°F)
Dewpoint: -8.0°C (18°F) [RH = 74%]
Pressure (altimeter): 30.06 inches Hg (1018.0 mb)
Winds: from the WSW (250 degrees) at 5 MPH (4 knots; 2.1 m/s)
Visibility: 6 or more miles (10+ km)
Ceiling: ceiling and visibility are OK
Clouds: unknown
Weather: no significant weather observed at this time

METAR text: UKBB 190600Z 25002MPS CAVOK M04/M08 Q1018 R36R/811040 R36L/821045 NOSIG
Conditions at: UKBB (BORISPOL'/KIEV , UA) observed 0600 UTC 19 January 2019
Temperature: -4.0°C (25°F)
Dewpoint: -8.0°C (18°F) [RH = 74%]
Pressure (altimeter): 30.06 inches Hg (1018.0 mb)
Winds: from the WSW (250 degrees) at 5 MPH (4 knots; 2.1 m/s)
Visibility: 6 or more miles (10+ km)
Ceiling: ceiling and visibility are OK
Clouds: unknown
Weather: no significant weather observed at this time

METAR text: UKBB 190530Z 25003MPS 9999 BKN049 M05/M08 Q1018 R36R/811040 R36L/821045 NOSIG
Conditions at: UKBB (BORISPOL'/KIEV , UA) observed 0530 UTC 19 January 2019
Temperature: -5.0°C (23°F)
Dewpoint: -8.0°C (18°F) [RH = 79%]
Pressure (altimeter): 30.06 inches Hg (1018.0 mb)
Winds: from the WSW (250 degrees) at 7 MPH (6 knots; 3.1 m/s)
Visibility: 6 or more miles (10+ km)
Ceiling: 4900 feet AGL
Clouds: broken clouds at 4900 feet AGL
Weather: no significant weather observed at this time

METAR text: UKBB 190500Z 28002MPS 9999 BKN049 M06/M08 Q1017 R36R/811040 R36L/821045 NOSIG
Conditions at: UKBB (BORISPOL'/KIEV , UA) observed 0500 UTC 19 January 2019
Temperature: -6.0°C (21°F)
Dewpoint: -8.0°C (18°F) [RH = 86%]
Pressure (altimeter): 30.03 inches Hg (1017.0 mb)
Winds: from the W (280 degrees) at 5 MPH (4 knots; 2.1 m/s)
Visibility: 6 or more miles (10+ km)
Ceiling: 4900 feet AGL
Clouds: broken clouds at 4900 feet AGL
Weather: no significant weather observed at this time

METAR text: UKBB 190430Z 30002MPS CAVOK M07/M09 Q1017 R36R/811040 R36L/821045 NOSIG
Conditions at: UKBB (BORISPOL'/KIEV , UA) observed 0430 UTC 19 January 2019
Temperature: -7.0°C (19°F)
Dewpoint: -9.0°C (16°F) [RH = 86%]
Pressure (altimeter): 30.03 inches Hg (1017.0 mb)
Winds: from the WNW (300 degrees) at 5 MPH (4 knots; 2.1 m/s)
Visibility: 6 or more miles (10+ km)
Ceiling: ceiling and visibility are OK
Clouds: unknown
Weather: no significant weather observed at this time

METAR text: UKBB 190400Z 31003MPS CAVOK M05/M09 Q1017 R36R/811040 R36L/821045 NOSIG
Conditions at: UKBB (BORISPOL'/KIEV , UA) observed 0400 UTC 19 January 2019
Temperature: -5.0°C (23°F)
Dewpoint: -9.0°C (16°F) [RH = 73%]
Pressure (altimeter): 30.03 inches Hg (1017.0 mb)
Winds: from the NW (310 degrees) at 7 MPH (6 knots; 3.1 m/s)
Visibility: 6 or more miles (10+ km)
Ceiling: ceiling and visibility are OK
Clouds: unknown
Weather: no significant weather observed at this time

METAR text: UKBB 190330Z 32004MPS CAVOK M04/M08 Q1017 R36R/811040 R36L/821045 NOSIG
Conditions at: UKBB (BORISPOL'/KIEV , UA) observed 0330 UTC 19 January 2019
Temperature: -4.0°C (25°F)
Dewpoint: -8.0°C (18°F) [RH = 74%]
Pressure (altimeter): 30.03 inches Hg (1017.0 mb)
Winds: from the NW (320 degrees) at 9 MPH (8 knots; 4.1 m/s)
Visibility: 6 or more miles (10+ km)
Ceiling: ceiling and visibility are OK
Clouds: unknown
Weather: no significant weather observed at this time

METAR text: UKBB 190300Z 33005MPS CAVOK M03/M07 Q1016 R36R/811040 R36L/821045 NOSIG
Conditions at: UKBB (BORISPOL'/KIEV , UA) observed 0300 UTC 19 January 2019
Temperature: -3.0°C (27°F)
Dewpoint: -7.0°C (19°F) [RH = 74%]
Pressure (altimeter): 30.00 inches Hg (1016.0 mb)
Winds: from the NNW (330 degrees) at 12 MPH (10 knots; 5.1 m/s)
Visibility: 6 or more miles (10+ km)
Ceiling: ceiling and visibility are OK
Clouds: unknown
Weather: no significant weather observed at this time

METAR text: UKBB 190230Z 33006MPS CAVOK M02/M07 Q1016 R36R/811040 R36L/821045 NOSIG
Conditions at: UKBB (BORISPOL'/KIEV , UA) observed 0230 UTC 19 January 2019
Temperature: -2.0°C (28°F)
Dewpoint: -7.0°C (19°F) [RH = 69%]
Pressure (altimeter): 30.00 inches Hg (1016.0 mb)
Winds: from the NNW (330 degrees) at 14 MPH (12 knots; 6.2 m/s)
Visibility: 6 or more miles (10+ km)
Ceiling: ceiling and visibility are OK
Clouds: unknown
Weather: no significant weather observed at this time

METAR text: UKBB 190200Z 33006MPS CAVOK M02/M06 Q1015 R36R/811040 R36L/821045 NOSIG
Conditions at: UKBB (BORISPOL'/KIEV , UA) observed 0200 UTC 19 January 2019
Temperature: -2.0°C (28°F)
Dewpoint: -6.0°C (21°F) [RH = 74%]
Pressure (altimeter): 29.97 inches Hg (1015.0 mb)
Winds: from the NNW (330 degrees) at 14 MPH (12 knots; 6.2 m/s)
Visibility: 6 or more miles (10+ km)
Ceiling: ceiling and visibility are OK
Clouds: unknown
Weather: no significant weather observed at this time

METAR text: UKBB 190130Z 32007MPS 9999 FEW040 M01/M06 Q1015 R36R/811040 R36L/821045 NOSIG
Conditions at: UKBB (BORISPOL'/KIEV , UA) observed 0130 UTC 19 January 2019
Temperature: -1.0°C (30°F)
Dewpoint: -6.0°C (21°F) [RH = 69%]
Pressure (altimeter): 29.97 inches Hg (1015.0 mb)
Winds: from the NW (320 degrees) at 16 MPH (14 knots; 7.2 m/s)
Visibility: 6 or more miles (10+ km)
Ceiling: at least 12,000 feet AGL
Clouds: few clouds at 4000 feet AGL
Weather: no significant weather observed at this time

METAR text: UKBB 190100Z 33006MPS 9999 SCT020 M01/M06 Q1014 R36R/811040 R36L/821045 NOSIG
Conditions at: UKBB (BORISPOL'/KIEV , UA) observed 0100 UTC 19 January 2019
Temperature: -1.0°C (30°F)
Dewpoint: -6.0°C (21°F) [RH = 69%]
Pressure (altimeter): 29.94 inches Hg (1014.0 mb)
Winds: from the NNW (330 degrees) at 14 MPH (12 knots; 6.2 m/s)
Visibility: 6 or more miles (10+ km)
Ceiling: at least 12,000 feet AGL
Clouds: scattered clouds at 2000 feet AGL
Weather: no significant weather observed at this time

METAR text: UKBB 190030Z 32006MPS 9999 SCT020 00/M03 Q1014 R36R/811040 R36L/821045 NOSIG
Conditions at: UKBB (BORISPOL'/KIEV , UA) observed 0030 UTC 19 January 2019
Temperature: 0.0°C (32°F)
Dewpoint: -3.0°C (27°F) [RH = 80%]
Pressure (altimeter): 29.94 inches Hg (1014.0 mb)
Winds: from the NW (320 degrees) at 14 MPH (12 knots; 6.2 m/s)
Visibility: 6 or more miles (10+ km)
Ceiling: at least 12,000 feet AGL
Clouds: scattered clouds at 2000 feet AGL
Weather: no significant weather observed at this time

METAR text: UKBB 190000Z 32005MPS CAVOK 01/M03 Q1013 R36R/811040 R36L/821045 NOSIG
Conditions at: UKBB (BORISPOL'/KIEV , UA) observed 0000 UTC 19 January 2019
Temperature: 1.0°C (34°F)
Dewpoint: -3.0°C (27°F) [RH = 75%]
Pressure (altimeter): 29.91 inches Hg (1013.0 mb)
Winds: from the NW (320 degrees) at 12 MPH (10 knots; 5.1 m/s)
Visibility: 6 or more miles (10+ km)
Ceiling: ceiling and visibility are OK
Clouds: unknown
Weather: no significant weather observed at this time

METAR text: UKBB 182330Z 32005MPS 9999 SCT024 01/M03 Q1012 R36R/811040 R36L/821045 NOSIG
Conditions at: UKBB (BORISPOL'/KIEV , UA) observed 2330 UTC 18 January 2019
Temperature: 1.0°C (34°F)
Dewpoint: -3.0°C (27°F) [RH = 75%]
Pressure (altimeter): 29.88 inches Hg (1012.0 mb)
Winds: from the NW (320 degrees) at 12 MPH (10 knots; 5.1 m/s)
Visibility: 6 or more miles (10+ km)
Ceiling: at least 12,000 feet AGL
Clouds: scattered clouds at 2400 feet AGL
Weather: no significant weather observed at this time

METAR text: UKBB 182300Z 32005MPS 9999 SCT020 01/M02 Q1012 R36R/811040 R36L/821045 NOSIG
Conditions at: UKBB (BORISPOL'/KIEV , UA) observed 2300 UTC 18 January 2019
Temperature: 1.0°C (34°F)
Dewpoint: -2.0°C (28°F) [RH = 80%]
Pressure (altimeter): 29.88 inches Hg (1012.0 mb)
Winds: from the NW (320 degrees) at 12 MPH (10 knots; 5.1 m/s)
Visibility: 6 or more miles (10+ km)
Ceiling: at least 12,000 feet AGL
Clouds: scattered clouds at 2000 feet AGL
Weather: no significant weather observed at this time

METAR text: UKBB 182230Z 29004MPS 260V320 CAVOK 02/M01 Q1012 R36R/811040 R36L/821045 NOSIG
Conditions at: UKBB (BORISPOL'/KIEV , UA) observed 2230 UTC 18 January 2019
Temperature: 2.0°C (36°F)
Dewpoint: -1.0°C (30°F) [RH = 80%]
Pressure (altimeter): 29.88 inches Hg (1012.0 mb)
Winds: from the WNW (290 degrees) at 9 MPH (8 knots; 4.1 m/s)
Visibility: 6 or more miles (10+ km)
Ceiling: ceiling and visibility are OK
Clouds: unknown
Weather: no significant weather observed at this time

METAR text: UKBB 182200Z 28003MPS 250V310 9999 SCT024 02/M00 Q1012 R36R/811040 R36L/821045 NOSIG
Conditions at: UKBB (BORISPOL'/KIEV , UA) observed 2200 UTC 18 January 2019
Temperature: 2.0°C (36°F)
Dewpoint: 0.0°C (32°F) [RH = 87%]
Pressure (altimeter): 29.88 inches Hg (1012.0 mb)
Winds: from the W (280 degrees) at 7 MPH (6 knots; 3.1 m/s)
Visibility: 6 or more miles (10+ km)
Ceiling: at least 12,000 feet AGL
Clouds: scattered clouds at 2400 feet AGL
Weather: no significant weather observed at this time

METAR text: UKBB 182130Z 30004MPS CAVOK 02/M00 Q1012 R18L/811040 R18R/821045 NOSIG
Conditions at: UKBB (BORISPOL'/KIEV , UA) observed 2130 UTC 18 January 2019
Temperature: 2.0°C (36°F)
Dewpoint: 0.0°C (32°F) [RH = 87%]
Pressure (altimeter): 29.88 inches Hg (1012.0 mb)
Winds: from the WNW (300 degrees) at 9 MPH (8 knots; 4.1 m/s)
Visibility: 6 or more miles (10+ km)
Ceiling: ceiling and visibility are OK
Clouds: unknown
Weather: no significant weather observed at this time

METAR text: UKBB 182100Z 27004MPS CAVOK 02/00 Q1011 R18L/811040 R18R/821045 NOSIG
Conditions at: UKBB (BORISPOL'/KIEV , UA) observed 2100 UTC 18 January 2019
Temperature: 2.0°C (36°F)
Dewpoint: 0.0°C (32°F) [RH = 87%]
Pressure (altimeter): 29.85 inches Hg (1011.0 mb)
Winds: from the W (270 degrees) at 9 MPH (8 knots; 4.1 m/s)
Visibility: 6 or more miles (10+ km)
Ceiling: ceiling and visibility are OK
Clouds: unknown
Weather: no significant weather observed at this time

METAR text: UKBB 182030Z 26003MPS CAVOK 02/00 Q1011 R18L/811040 R18R/821045 NOSIG
Conditions at: UKBB (BORISPOL'/KIEV , UA) observed 2030 UTC 18 January 2019
Temperature: 2.0°C (36°F)
Dewpoint: 0.0°C (32°F) [RH = 87%]
Pressure (altimeter): 29.85 inches Hg (1011.0 mb)
Winds: from the W (260 degrees) at 7 MPH (6 knots; 3.1 m/s)
Visibility: 6 or more miles (10+ km)
Ceiling: ceiling and visibility are OK
Clouds: unknown
Weather: no significant weather observed at this time

METAR text: UKBB 182000Z 26003MPS 230V300 CAVOK 02/00 Q1011 R18L/811040 R18R/821045 NOSIG
Conditions at: UKBB (BORISPOL'/KIEV , UA) observed 2000 UTC 18 January 2019
Temperature: 2.0°C (36°F)
Dewpoint: 0.0°C (32°F) [RH = 87%]
Pressure (altimeter): 29.85 inches Hg (1011.0 mb)
Winds: from the W (260 degrees) at 7 MPH (6 knots; 3.1 m/s)
Visibility: 6 or more miles (10+ km)
Ceiling: ceiling and visibility are OK
Clouds: unknown
Weather: no significant weather observed at this time

METAR text: UKBB 181930Z 26003MPS 240V310 CAVOK 02/01 Q1011 R18L/811040 R18R/821045 NOSIG
Conditions at: UKBB (BORISPOL'/KIEV , UA) observed 1930 UTC 18 January 2019
Temperature: 2.0°C (36°F)
Dewpoint: 1.0°C (34°F) [RH = 93%]
Pressure (altimeter): 29.85 inches Hg (1011.0 mb)
Winds: from the W (260 degrees) at 7 MPH (6 knots; 3.1 m/s)
Visibility: 6 or more miles (10+ km)
Ceiling: ceiling and visibility are OK
Clouds: unknown
Weather: no significant weather observed at this time

METAR text: UKBB 181900Z 26004MPS CAVOK 03/00 Q1010 R18L/811040 R18R/821045 NOSIG
Conditions at: UKBB (BORISPOL'/KIEV , UA) observed 1900 UTC 18 January 2019
Temperature: 3.0°C (37°F)
Dewpoint: 0.0°C (32°F) [RH = 81%]
Pressure (altimeter): 29.82 inches Hg (1010.0 mb)
Winds: from the W (260 degrees) at 9 MPH (8 knots; 4.1 m/s)
Visibility: 6 or more miles (10+ km)
Ceiling: ceiling and visibility are OK
Clouds: unknown
Weather: no significant weather observed at this time

METAR text: UKBB 181830Z 26004MPS CAVOK 03/00 Q1010 R18L/811040 R18R/821045 NOSIG
Conditions at: UKBB (BORISPOL'/KIEV , UA) observed 1830 UTC 18 January 2019
Temperature: 3.0°C (37°F)
Dewpoint: 0.0°C (32°F) [RH = 81%]
Pressure (altimeter): 29.82 inches Hg (1010.0 mb)
Winds: from the W (260 degrees) at 9 MPH (8 knots; 4.1 m/s)
Visibility: 6 or more miles (10+ km)
Ceiling: ceiling and visibility are OK
Clouds: unknown
Weather: no significant weather observed at this time

METAR text: UKBB 181800Z 26004MPS CAVOK 02/00 Q1010 R18L/811040 R18R/821045 NOSIG
Conditions at: UKBB (BORISPOL'/KIEV , UA) observed 1800 UTC 18 January 2019
Temperature: 2.0°C (36°F)
Dewpoint: 0.0°C (32°F) [RH = 87%]
Pressure (altimeter): 29.82 inches Hg (1010.0 mb)
Winds: from the W (260 degrees) at 9 MPH (8 knots; 4.1 m/s)
Visibility: 6 or more miles (10+ km)
Ceiling: ceiling and visibility are OK
Clouds: unknown
Weather: no significant weather observed at this time

METAR text: UKBB 181730Z 26003MPS 9999 OVC049 02/00 Q1010 R18L/811040 R18R/821045 NOSIG
Conditions at: UKBB (BORISPOL'/KIEV , UA) observed 1730 UTC 18 January 2019
Temperature: 2.0°C (36°F)
Dewpoint: 0.0°C (32°F) [RH = 87%]
Pressure (altimeter): 29.82 inches Hg (1010.0 mb)
Winds: from the W (260 degrees) at 7 MPH (6 knots; 3.1 m/s)
Visibility: 6 or more miles (10+ km)
Ceiling: 4900 feet AGL
Clouds: overcast cloud deck at 4900 feet AGL
Weather: no significant weather observed at this time

METAR text: UKBB 181700Z 23003MPS 9999 OVC040 02/00 Q1009 R18L/811040 R18R/821045 NOSIG
Conditions at: UKBB (BORISPOL'/KIEV , UA) observed 1700 UTC 18 January 2019
Temperature: 2.0°C (36°F)
Dewpoint: 0.0°C (32°F) [RH = 87%]
Pressure (altimeter): 29.79 inches Hg (1009.0 mb)
Winds: from the SW (230 degrees) at 7 MPH (6 knots; 3.1 m/s)
Visibility: 6 or more miles (10+ km)
Ceiling: 4000 feet AGL
Clouds: overcast cloud deck at 4000 feet AGL
Weather: no significant weather observed at this time

METAR text: UKBB 181630Z 22003MPS 9999 OVC040 02/M00 Q1009 R18L/811040 R18R/821045 NOSIG
Conditions at: UKBB (BORISPOL'/KIEV , UA) observed 1630 UTC 18 January 2019
Temperature: 2.0°C (36°F)
Dewpoint: 0.0°C (32°F) [RH = 87%]
Pressure (altimeter): 29.79 inches Hg (1009.0 mb)
Winds: from the SW (220 degrees) at 7 MPH (6 knots; 3.1 m/s)
Visibility: 6 or more miles (10+ km)
Ceiling: 4000 feet AGL
Clouds: overcast cloud deck at 4000 feet AGL
Weather: no significant weather observed at this time

METAR text: UKBB 181600Z 23004MPS 9999 OVC032 02/M00 Q1009 R18L/811040 R18R/821045 NOSIG
Conditions at: UKBB (BORISPOL'/KIEV , UA) observed 1600 UTC 18 January 2019
Temperature: 2.0°C (36°F)
Dewpoint: 0.0°C (32°F) [RH = 87%]
Pressure (altimeter): 29.79 inches Hg (1009.0 mb)
Winds: from the SW (230 degrees) at 9 MPH (8 knots; 4.1 m/s)
Visibility: 6 or more miles (10+ km)
Ceiling: 3200 feet AGL
Clouds: overcast cloud deck at 3200 feet AGL
Weather: no significant weather observed at this time

METAR text: UKBB 181530Z 22004MPS 9999 OVC038 01/M01 Q1009 R18L/811040 R18R/821045 NOSIG
Conditions at: UKBB (BORISPOL'/KIEV , UA) observed 1530 UTC 18 January 2019
Temperature: 1.0°C (34°F)
Dewpoint: -1.0°C (30°F) [RH = 86%]
Pressure (altimeter): 29.79 inches Hg (1009.0 mb)
Winds: from the SW (220 degrees) at 9 MPH (8 knots; 4.1 m/s)
Visibility: 6 or more miles (10+ km)
Ceiling: 3800 feet AGL
Clouds: overcast cloud deck at 3800 feet AGL
Weather: no significant weather observed at this time

METAR text: UKBB 181500Z 21004MPS 9999 OVC036 01/M01 Q1008 R18L/811040 R18R/821045 NOSIG
Conditions at: UKBB (BORISPOL'/KIEV , UA) observed 1500 UTC 18 January 2019
Temperature: 1.0°C (34°F)
Dewpoint: -1.0°C (30°F) [RH = 86%]
Pressure (altimeter): 29.76 inches Hg (1008.0 mb)
Winds: from the SSW (210 degrees) at 9 MPH (8 knots; 4.1 m/s)
Visibility: 6 or more miles (10+ km)
Ceiling: 3600 feet AGL
Clouds: overcast cloud deck at 3600 feet AGL
Weather: no significant weather observed at this time

METAR text: UKBB 181430Z 23003MPS 9999 OVC036 02/M01 Q1009 R18L/811040 R18R/821045 NOSIG
Conditions at: UKBB (BORISPOL'/KIEV , UA) observed 1430 UTC 18 January 2019
Temperature: 2.0°C (36°F)
Dewpoint: -1.0°C (30°F) [RH = 80%]
Pressure (altimeter): 29.79 inches Hg (1009.0 mb)
Winds: from the SW (230 degrees) at 7 MPH (6 knots; 3.1 m/s)
Visibility: 6 or more miles (10+ km)
Ceiling: 3600 feet AGL
Clouds: overcast cloud deck at 3600 feet AGL
Weather: no significant weather observed at this time

METAR text: UKBB 181400Z 23004MPS 9999 OVC040 02/M01 Q1008 R18L/811040 R18R/821045 NOSIG
Conditions at: UKBB (BORISPOL'/KIEV , UA) observed 1400 UTC 18 January 2019
Temperature: 2.0°C (36°F)
Dewpoint: -1.0°C (30°F) [RH = 80%]
Pressure (altimeter): 29.76 inches Hg (1008.0 mb)
Winds: from the SW (230 degrees) at 9 MPH (8 knots; 4.1 m/s)
Visibility: 6 or more miles (10+ km)
Ceiling: 4000 feet AGL
Clouds: overcast cloud deck at 4000 feet AGL
Weather: no significant weather observed at this time

METAR text: UKBB 181330Z 24004MPS 9999 OVC040 02/M01 Q1008 R18L/811040 R18R/821045 NOSIG
Conditions at: UKBB (BORISPOL'/KIEV , UA) observed 1330 UTC 18 January 2019
Temperature: 2.0°C (36°F)
Dewpoint: -1.0°C (30°F) [RH = 80%]
Pressure (altimeter): 29.76 inches Hg (1008.0 mb)
Winds: from the WSW (240 degrees) at 9 MPH (8 knots; 4.1 m/s)
Visibility: 6 or more miles (10+ km)
Ceiling: 4000 feet AGL
Clouds: overcast cloud deck at 4000 feet AGL
Weather: no significant weather observed at this time

METAR text: UKBB 181300Z 24004MPS 9999 BKN040 02/M02 Q1008 R18L/811040 R18R/821045 NOSIG
Conditions at: UKBB (BORISPOL'/KIEV , UA) observed 1300 UTC 18 January 2019
Temperature: 2.0°C (36°F)
Dewpoint: -2.0°C (28°F) [RH = 75%]
Pressure (altimeter): 29.76 inches Hg (1008.0 mb)
Winds: from the WSW (240 degrees) at 9 MPH (8 knots; 4.1 m/s)
Visibility: 6 or more miles (10+ km)
Ceiling: 4000 feet AGL
Clouds: broken clouds at 4000 feet AGL
Weather: no significant weather observed at this time

METAR text: UKBB 181230Z 21006MPS CAVOK 02/M02 Q1007 R18L/811040 R18R/821045 NOSIG
Conditions at: UKBB (BORISPOL'/KIEV , UA) observed 1230 UTC 18 January 2019
Temperature: 2.0°C (36°F)
Dewpoint: -2.0°C (28°F) [RH = 75%]
Pressure (altimeter): 29.73 inches Hg (1007.0 mb)
Winds: from the SSW (210 degrees) at 14 MPH (12 knots; 6.2 m/s)
Visibility: 6 or more miles (10+ km)
Ceiling: ceiling and visibility are OK
Clouds: unknown
Weather: no significant weather observed at this time

METAR text: UKBB 181200Z 21005MPS CAVOK 01/M02 Q1007 R18L/811040 R18R/821045 NOSIG
Conditions at: UKBB (BORISPOL'/KIEV , UA) observed 1200 UTC 18 January 2019
Temperature: 1.0°C (34°F)
Dewpoint: -2.0°C (28°F) [RH = 80%]
Pressure (altimeter): 29.73 inches Hg (1007.0 mb)
Winds: from the SSW (210 degrees) at 12 MPH (10 knots; 5.1 m/s)
Visibility: 6 or more miles (10+ km)
Ceiling: ceiling and visibility are OK
Clouds: unknown
Weather: no significant weather observed at this time

METAR text: UKBB 181130Z 21006MPS CAVOK 01/M02 Q1008 R18L/811040 R18R/821045 NOSIG
Conditions at: UKBB (BORISPOL'/KIEV , UA) observed 1130 UTC 18 January 2019
Temperature: 1.0°C (34°F)
Dewpoint: -2.0°C (28°F) [RH = 80%]
Pressure (altimeter): 29.76 inches Hg (1008.0 mb)
Winds: from the SSW (210 degrees) at 14 MPH (12 knots; 6.2 m/s)
Visibility: 6 or more miles (10+ km)
Ceiling: ceiling and visibility are OK
Clouds: unknown
Weather: no significant weather observed at this time

METAR text: UKBB 181100Z 20005MPS CAVOK 00/M02 Q1007 R18L/811040 R18R/821045 NOSIG
Conditions at: UKBB (BORISPOL'/KIEV , UA) observed 1100 UTC 18 January 2019
Temperature: 0.0°C (32°F)
Dewpoint: -2.0°C (28°F) [RH = 86%]
Pressure (altimeter): 29.73 inches Hg (1007.0 mb)
Winds: from the SSW (200 degrees) at 12 MPH (10 knots; 5.1 m/s)
Visibility: 6 or more miles (10+ km)
Ceiling: ceiling and visibility are OK
Clouds: unknown
Weather: no significant weather observed at this time

METAR text: UKBB 181030Z 20004MPS CAVOK M00/M02 Q1008 R18L/811040 R18R/821045 NOSIG
Conditions at: UKBB (BORISPOL'/KIEV , UA) observed 1030 UTC 18 January 2019
Temperature: 0.0°C (32°F)
Dewpoint: -2.0°C (28°F) [RH = 86%]
Pressure (altimeter): 29.76 inches Hg (1008.0 mb)
Winds: from the SSW (200 degrees) at 9 MPH (8 knots; 4.1 m/s)
Visibility: 6 or more miles (10+ km)
Ceiling: ceiling and visibility are OK
Clouds: unknown
Weather: no significant weather observed at this time

METAR text: UKBB 181000Z 20004MPS CAVOK M00/M02 Q1008 R18L/811040 R18R/821045 NOSIG
Conditions at: UKBB (BORISPOL'/KIEV , UA) observed 1000 UTC 18 January 2019
Temperature: 0.0°C (32°F)
Dewpoint: -2.0°C (28°F) [RH = 86%]
Pressure (altimeter): 29.76 inches Hg (1008.0 mb)
Winds: from the SSW (200 degrees) at 9 MPH (8 knots; 4.1 m/s)
Visibility: 6 or more miles (10+ km)
Ceiling: ceiling and visibility are OK
Clouds: unknown
Weather: no significant weather observed at this time

METAR text: UKBB 180930Z 20005MPS CAVOK M01/M03 Q1008 R18L/811040 R18R/821045 NOSIG
Conditions at: UKBB (BORISPOL'/KIEV , UA) observed 0930 UTC 18 January 2019
Temperature: -1.0°C (30°F)
Dewpoint: -3.0°C (27°F) [RH = 86%]
Pressure (altimeter): 29.76 inches Hg (1008.0 mb)
Winds: from the SSW (200 degrees) at 12 MPH (10 knots; 5.1 m/s)
Visibility: 6 or more miles (10+ km)
Ceiling: ceiling and visibility are OK
Clouds: unknown
Weather: no significant weather observed at this time

METAR text: UKBB 180900Z 20005MPS 9000 NSC M02/M03 Q1008 R18L/811040 R18R/821045 NOSIG
Conditions at: UKBB (BORISPOL'/KIEV , UA) observed 0900 UTC 18 January 2019
Temperature: -2.0°C (28°F)
Dewpoint: -3.0°C (27°F) [RH = 93%]
Pressure (altimeter): 29.76 inches Hg (1008.0 mb)
Winds: from the SSW (200 degrees) at 12 MPH (10 knots; 5.1 m/s)
Visibility: 6 miles ( 9 km)
Ceiling: at least 12,000 feet AGL
Clouds: sky clear below 12,000 feet AGL
Weather: no significant weather observed at this time

METAR text: UKBB 180830Z 20004MPS 9000 NSC M03/M03 Q1008 R18L/811040 R18R/821045 NOSIG
Conditions at: UKBB (BORISPOL'/KIEV , UA) observed 0830 UTC 18 January 2019
Temperature: -3.0°C (27°F)
Dewpoint: -3.0°C (27°F) [RH = 100%]
Pressure (altimeter): 29.76 inches Hg (1008.0 mb)
Winds: from the SSW (200 degrees) at 9 MPH (8 knots; 4.1 m/s)
Visibility: 6 miles ( 9 km)
Ceiling: at least 12,000 feet AGL
Clouds: sky clear below 12,000 feet AGL
Weather: no significant weather observed at this time

METAR text: UKBB 180800Z 21006MPS 9000 NSC M03/M04 Q1008 R18L/811040 R18R/821045 NOSIG
Conditions at: UKBB (BORISPOL'/KIEV , UA) observed 0800 UTC 18 January 2019
Temperature: -3.0°C (27°F)
Dewpoint: -4.0°C (25°F) [RH = 93%]
Pressure (altimeter): 29.76 inches Hg (1008.0 mb)
Winds: from the SSW (210 degrees) at 14 MPH (12 knots; 6.2 m/s)
Visibility: 6 miles ( 9 km)
Ceiling: at least 12,000 feet AGL
Clouds: sky clear below 12,000 feet AGL
Weather: no significant weather observed at this time

METAR text: UKBB 180730Z 21006MPS 9000 NSC M04/M04 Q1008 R18L/811040 R18R/821045 NOSIG
Conditions at: UKBB (BORISPOL'/KIEV , UA) observed 0730 UTC 18 January 2019
Temperature: -4.0°C (25°F)
Dewpoint: -4.0°C (25°F) [RH = 100%]
Pressure (altimeter): 29.76 inches Hg (1008.0 mb)
Winds: from the SSW (210 degrees) at 14 MPH (12 knots; 6.2 m/s)
Visibility: 6 miles ( 9 km)
Ceiling: at least 12,000 feet AGL
Clouds: sky clear below 12,000 feet AGL
Weather: no significant weather observed at this time

METAR text: UKBB 180700Z 20005MPS 8000 NSC M04/M04 Q1008 R18L/811040 R18R/821045 NOSIG
Conditions at: UKBB (BORISPOL'/KIEV , UA) observed 0700 UTC 18 January 2019
Temperature: -4.0°C (25°F)
Dewpoint: -4.0°C (25°F) [RH = 100%]
Pressure (altimeter): 29.76 inches Hg (1008.0 mb)
Winds: from the SSW (200 degrees) at 12 MPH (10 knots; 5.1 m/s)
Visibility: 5 miles ( 8 km)
Ceiling: at least 12,000 feet AGL
Clouds: sky clear below 12,000 feet AGL
Weather: no significant weather observed at this time

METAR text: UKBB 180630Z 21004MPS 7000 NSC M04/M04 Q1008 R18L/811040 R18R/821045 NOSIG
Conditions at: UKBB (BORISPOL'/KIEV , UA) observed 0630 UTC 18 January 2019
Temperature: -4.0°C (25°F)
Dewpoint: -4.0°C (25°F) [RH = 100%]
Pressure (altimeter): 29.76 inches Hg (1008.0 mb)
Winds: from the SSW (210 degrees) at 9 MPH (8 knots; 4.1 m/s)
Visibility: 4 miles ( 7 km)
Ceiling: at least 12,000 feet AGL
Clouds: sky clear below 12,000 feet AGL
Weather: no significant weather observed at this time

METAR text: UKBB 180600Z 19004MPS 7000 NSC M05/M05 Q1008 R18L/811040 R18R/821045 NOSIG
Conditions at: UKBB (BORISPOL'/KIEV , UA) observed 0600 UTC 18 January 2019
Temperature: -5.0°C (23°F)
Dewpoint: -5.0°C (23°F) [RH = 100%]
Pressure (altimeter): 29.76 inches Hg (1008.0 mb)
Winds: from the S (190 degrees) at 9 MPH (8 knots; 4.1 m/s)
Visibility: 4 miles ( 7 km)
Ceiling: at least 12,000 feet AGL
Clouds: sky clear below 12,000 feet AGL
Weather: no significant weather observed at this time

METAR text: UKBB 180530Z 19004MPS 7000 NSC M06/M06 Q1008 R18L/811040 R18R/821045 NOSIG
Conditions at: UKBB (BORISPOL'/KIEV , UA) observed 0530 UTC 18 January 2019
Temperature: -6.0°C (21°F)
Dewpoint: -6.0°C (21°F) [RH = 100%]
Pressure (altimeter): 29.76 inches Hg (1008.0 mb)
Winds: from the S (190 degrees) at 9 MPH (8 knots; 4.1 m/s)
Visibility: 4 miles ( 7 km)
Ceiling: at least 12,000 feet AGL
Clouds: sky clear below 12,000 feet AGL
Weather: no significant weather observed at this time

METAR text: UKBB 180500Z 22004MPS CAVOK M05/M05 Q1008 R18L/811040 R18R/821045 NOSIG
Conditions at: UKBB (BORISPOL'/KIEV , UA) observed 0500 UTC 18 January 2019
Temperature: -5.0°C (23°F)
Dewpoint: -5.0°C (23°F) [RH = 100%]
Pressure (altimeter): 29.76 inches Hg (1008.0 mb)
Winds: from the SW (220 degrees) at 9 MPH (8 knots; 4.1 m/s)
Visibility: 6 or more miles (10+ km)
Ceiling: ceiling and visibility are OK
Clouds: unknown
Weather: no significant weather observed at this time

METAR text: UKBB 180430Z 20006MPS CAVOK M06/M06 Q1008 R18L/811040 R18R/821045 NOSIG
Conditions at: UKBB (BORISPOL'/KIEV , UA) observed 0430 UTC 18 January 2019
Temperature: -6.0°C (21°F)
Dewpoint: -6.0°C (21°F) [RH = 100%]
Pressure (altimeter): 29.76 inches Hg (1008.0 mb)
Winds: from the SSW (200 degrees) at 14 MPH (12 knots; 6.2 m/s)
Visibility: 6 or more miles (10+ km)
Ceiling: ceiling and visibility are OK
Clouds: unknown
Weather: no significant weather observed at this time

METAR text: UKBB 180400Z 20005MPS CAVOK M07/M07 Q1008 R18L/811040 R18R/821045 NOSIG
Conditions at: UKBB (BORISPOL'/KIEV , UA) observed 0400 UTC 18 January 2019
Temperature: -7.0°C (19°F)
Dewpoint: -7.0°C (19°F) [RH = 100%]
Pressure (altimeter): 29.76 inches Hg (1008.0 mb)
Winds: from the SSW (200 degrees) at 12 MPH (10 knots; 5.1 m/s)
Visibility: 6 or more miles (10+ km)
Ceiling: ceiling and visibility are OK
Clouds: unknown
Weather: no significant weather observed at this time

METAR text: UKBB 180330Z 20005MPS CAVOK M07/M07 Q1008 R18L/811040 R18R/821045 NOSIG
Conditions at: UKBB (BORISPOL'/KIEV , UA) observed 0330 UTC 18 January 2019
Temperature: -7.0°C (19°F)
Dewpoint: -7.0°C (19°F) [RH = 100%]
Pressure (altimeter): 29.76 inches Hg (1008.0 mb)
Winds: from the SSW (200 degrees) at 12 MPH (10 knots; 5.1 m/s)
Visibility: 6 or more miles (10+ km)
Ceiling: ceiling and visibility are OK
Clouds: unknown
Weather: no significant weather observed at this time

METAR text: UKBB 180300Z 20004MPS CAVOK M07/M07 Q1008 R18L/811040 R18R/821045 NOSIG
Conditions at: UKBB (BORISPOL'/KIEV , UA) observed 0300 UTC 18 January 2019
Temperature: -7.0°C (19°F)
Dewpoint: -7.0°C (19°F) [RH = 100%]
Pressure (altimeter): 29.76 inches Hg (1008.0 mb)
Winds: from the SSW (200 degrees) at 9 MPH (8 knots; 4.1 m/s)
Visibility: 6 or more miles (10+ km)
Ceiling: ceiling and visibility are OK
Clouds: unknown
Weather: no significant weather observed at this time

Forecast for: UKBB (BORISPOL'/KIEV , UA)
Text: TAF UKBB 191100Z 1912/2012 26004G09MPS 9999 SCT015 TXM01/1912Z TNM12/2006Z
Forecast period: 1200 UTC 19 January 2019 to 0600 UTC 20 January 2019
Forecast type: FROM: standard forecast or significant change
Winds: from the W (260 degrees) at 9 MPH (8 knots; 4.1 m/s)
gusting to 20 MPH (17 knots; 8.7 m/s)
Visibility: 6 or more miles 10+ km)
Ceiling: at least 12,000 feet AGL
Clouds: scattered clouds at 1500 feet AGL
Weather: no significant weather forecast for this period
Text: TEMPO 1916/2006 VRB01MPS 2100 BR SCT005
Forecast period: 1600 UTC 19 January 2019 to 0600 UTC 20 January 2019
Forecast type: TEMPORARY: The following changes expected for less than half the time period
Winds: variable direction winds at 2 MPH (2 knots; 1.0 m/s)
Visibility: 1.30 miles (2.09 km)
Ceiling: at least 12,000 feet AGL
Clouds: scattered clouds at 500 feet AGL
Weather: BR  (mist)
Text: PROB40
Forecast period: 1600 UTC 19 January 2019 to 0600 UTC 20 January 2019
Forecast type: TEMPORARY: The following changes expected for less than half the time period
Visibility: 0.25 miles (0.40 km)
Ceiling: indefinite ceiling with vertical visibility of 200 feet AGL
Clouds: obscured sky
Weather: FZFG  (freezing fog)
Text: TEMPO 1916/2006 0400 FZFG VV002
Forecast period: 0600 to 1200 UTC 20 January 2019
Forecast type: BECOMING: Conditions expected to become as follows by 0800 UTC 20 January 2019
Winds: from the SW (220 degrees) at 12 MPH (10 knots; 5.1 m/s)
gusting to 24 MPH (21 knots; 10.8 m/s)
Visibility: 4 miles (6 km)
Ceiling: 1000 feet AGL
Clouds: broken clouds at 1000 feet AGL
Weather: no significant weather forecast for this period
Text: BECMG 2006/2008 22005G11MPS 6000 BKN010
Forecast period: 0800 to 1200 UTC 20 January 2019
Forecast type: TEMPORARY: The following changes expected for less than half the time period
Visibility: 1.86 miles (2.99 km)
Ceiling: 400 feet AGL
Clouds: broken clouds at 400 feet AGL
scattered clouds at 1500 feet AGL
Weather: -SHSN BR  (light snow showers, mist)